sensor_id;sensor_type;location;lat;lon;timestamp;P1;durP1;ratioP1;P2;durP2;ratioP2
16440;SDS011;8330;-33.858;151.184;2023-09-30T00:01:22;5.18;;;4.68;;
16440;SDS011;8330;-33.858;151.184;2023-09-30T00:03:52;6.30;;;5.25;;
16440;SDS011;8330;-33.858;151.184;2023-09-30T00:06:23;6.03;;;5.00;;
16440;SDS011;8330;-33.858;151.184;2023-09-30T00:08:54;5.47;;;4.80;;
16440;SDS011;8330;-33.858;151.184;2023-09-30T00:11:25;6.22;;;4.60;;
16440;SDS011;8330;-33.858;151.184;2023-09-30T00:13:57;5.97;;;4.78;;
16440;SDS011;8330;-33.858;151.184;2023-09-30T00:16:28;7.28;;;4.65;;
16440;SDS011;8330;-33.858;151.184;2023-09-30T00:18:59;6.45;;;4.20;;
16440;SDS011;8330;-33.858;151.184;2023-09-30T00:21:29;4.80;;;4.25;;
16440;SDS011;8330;-33.858;151.184;2023-09-30T00:24:00;4.63;;;4.00;;
16440;SDS011;8330;-33.858;151.184;2023-09-30T00:26:31;8.38;;;4.22;;
16440;SDS011;8330;-33.858;151.184;2023-09-30T00:29:04;6.05;;;4.30;;
16440;SDS011;8330;-33.858;151.184;2023-09-30T00:31:36;5.78;;;3.88;;
16440;SDS011;8330;-33.858;151.184;2023-09-30T00:34:07;4.38;;;3.70;;
16440;SDS011;8330;-33.858;151.184;2023-09-30T00:36:37;4.35;;;3.72;;
16440;SDS011;8330;-33.858;151.184;2023-09-30T00:39:08;4.00;;;3.50;;
16440;SDS011;8330;-33.858;151.184;2023-09-30T00:41:39;6.35;;;3.78;;
16440;SDS011;8330;-33.858;151.184;2023-09-30T00:44:12;7.40;;;3.80;;
16440;SDS011;8330;-33.858;151.184;2023-09-30T00:46:42;7.25;;;3.80;;
16440;SDS011;8330;-33.858;151.184;2023-09-30T00:49:13;9.15;;;4.20;;
16440;SDS011;8330;-33.858;151.184;2023-09-30T00:51:45;6.15;;;4.00;;
16440;SDS011;8330;-33.858;151.184;2023-09-30T00:54:18;6.78;;;3.88;;
16440;SDS011;8330;-33.858;151.184;2023-09-30T00:56:50;8.05;;;3.97;;
16440;SDS011;8330;-33.858;151.184;2023-09-30T00:59:25;6.38;;;3.88;;
16440;SDS011;8330;-33.858;151.184;2023-09-30T01:01:58;7.25;;;4.05;;
16440;SDS011;8330;-33.858;151.184;2023-09-30T01:04:32;5.72;;;3.78;;
16440;SDS011;8330;-33.858;151.184;2023-09-30T01:07:03;5.97;;;3.70;;
16440;SDS011;8330;-33.858;151.184;2023-09-30T01:09:33;7.43;;;3.80;;
16440;SDS011;8330;-33.858;151.184;2023-09-30T01:12:05;4.05;;;3.22;;
16440;SDS011;8330;-33.858;151.184;2023-09-30T01:14:37;9.73;;;3.40;;
16440;SDS011;8330;-33.858;151.184;2023-09-30T01:17:08;5.47;;;3.80;;
16440;SDS011;8330;-33.858;151.184;2023-09-30T01:19:39;6.60;;;4.30;;
16440;SDS011;8330;-33.858;151.184;2023-09-30T01:22:12;7.03;;;4.32;;
16440;SDS011;8330;-33.858;151.184;2023-09-30T01:24:43;7.25;;;4.32;;
16440;SDS011;8330;-33.858;151.184;2023-09-30T01:27:14;7.20;;;4.57;;
16440;SDS011;8330;-33.858;151.184;2023-09-30T01:29:45;10.32;;;4.35;;
16440;SDS011;8330;-33.858;151.184;2023-09-30T01:32:16;8.63;;;4.50;;
16440;SDS011;8330;-33.858;151.184;2023-09-30T01:34:47;9.75;;;4.78;;
16440;SDS011;8330;-33.858;151.184;2023-09-30T01:37:20;8.98;;;4.50;;
16440;SDS011;8330;-33.858;151.184;2023-09-30T01:39:50;8.38;;;4.70;;
16440;SDS011;8330;-33.858;151.184;2023-09-30T01:42:21;11.13;;;4.95;;
16440;SDS011;8330;-33.858;151.184;2023-09-30T01:44:52;9.82;;;5.00;;
16440;SDS011;8330;-33.858;151.184;2023-09-30T01:47:23;8.10;;;4.72;;
16440;SDS011;8330;-33.858;151.184;2023-09-30T01:49:54;8.65;;;4.97;;
16440;SDS011;8330;-33.858;151.184;2023-09-30T01:52:27;9.50;;;4.88;;
16440;SDS011;8330;-33.858;151.184;2023-09-30T01:54:57;7.55;;;4.25;;
16440;SDS011;8330;-33.858;151.184;2023-09-30T01:57:28;11.55;;;4.35;;
16440;SDS011;8330;-33.858;151.184;2023-09-30T01:59:59;8.50;;;4.60;;
16440;SDS011;8330;-33.858;151.184;2023-09-30T02:02:30;10.07;;;4.45;;
16440;SDS011;8330;-33.858;151.184;2023-09-30T02:05:01;6.43;;;4.05;;
16440;SDS011;8330;-33.858;151.184;2023-09-30T02:07:36;7.22;;;4.05;;
16440;SDS011;8330;-33.858;151.184;2023-09-30T02:10:07;7.68;;;4.55;;
16440;SDS011;8330;-33.858;151.184;2023-09-30T02:12:38;12.15;;;4.57;;
16440;SDS011;8330;-33.858;151.184;2023-09-30T02:15:09;6.78;;;4.40;;
16440;SDS011;8330;-33.858;151.184;2023-09-30T02:17:40;9.07;;;4.93;;
16440;SDS011;8330;-33.858;151.184;2023-09-30T02:20:12;9.15;;;4.88;;
16440;SDS011;8330;-33.858;151.184;2023-09-30T02:22:47;7.75;;;4.40;;
16440;SDS011;8330;-33.858;151.184;2023-09-30T02:25:18;7.30;;;4.07;;
16440;SDS011;8330;-33.858;151.184;2023-09-30T02:27:49;8.05;;;4.10;;
16440;SDS011;8330;-33.858;151.184;2023-09-30T02:30:20;9.57;;;4.57;;
16440;SDS011;8330;-33.858;151.184;2023-09-30T02:32:50;10.00;;;5.22;;
16440;SDS011;8330;-33.858;151.184;2023-09-30T02:35:22;11.60;;;5.78;;
16440;SDS011;8330;-33.858;151.184;2023-09-30T02:37:55;7.60;;;4.50;;
16440;SDS011;8330;-33.858;151.184;2023-09-30T02:40:26;8.20;;;4.20;;
16440;SDS011;8330;-33.858;151.184;2023-09-30T02:42:57;7.30;;;4.03;;
16440;SDS011;8330;-33.858;151.184;2023-09-30T02:45:28;8.70;;;3.85;;
16440;SDS011;8330;-33.858;151.184;2023-09-30T02:47:59;7.75;;;4.15;;
16440;SDS011;8330;-33.858;151.184;2023-09-30T02:50:30;8.07;;;3.95;;
16440;SDS011;8330;-33.858;151.184;2023-09-30T02:53:03;6.95;;;3.78;;
16440;SDS011;8330;-33.858;151.184;2023-09-30T02:55:34;9.52;;;4.35;;
16440;SDS011;8330;-33.858;151.184;2023-09-30T02:58:05;6.18;;;3.95;;
16440;SDS011;8330;-33.858;151.184;2023-09-30T03:00:36;9.00;;;4.40;;
16440;SDS011;8330;-33.858;151.184;2023-09-30T03:03:07;6.13;;;3.75;;
16440;SDS011;8330;-33.858;151.184;2023-09-30T03:05:38;7.10;;;3.90;;
16440;SDS011;8330;-33.858;151.184;2023-09-30T03:08:13;10.90;;;3.88;;
16440;SDS011;8330;-33.858;151.184;2023-09-30T03:10:44;8.55;;;4.07;;
16440;SDS011;8330;-33.858;151.184;2023-09-30T03:13:15;7.05;;;3.63;;
16440;SDS011;8330;-33.858;151.184;2023-09-30T03:15:47;5.93;;;3.95;;
16440;SDS011;8330;-33.858;151.184;2023-09-30T03:18:18;7.47;;;3.90;;
16440;SDS011;8330;-33.858;151.184;2023-09-30T03:20:52;7.28;;;4.30;;
16440;SDS011;8330;-33.858;151.184;2023-09-30T03:23:29;8.80;;;4.25;;
16440;SDS011;8330;-33.858;151.184;2023-09-30T03:26:00;8.27;;;4.47;;
16440;SDS011;8330;-33.858;151.184;2023-09-30T03:28:33;10.02;;;4.55;;
16440;SDS011;8330;-33.858;151.184;2023-09-30T03:31:04;9.27;;;4.40;;
16440;SDS011;8330;-33.858;151.184;2023-09-30T03:33:36;6.25;;;4.13;;
16440;SDS011;8330;-33.858;151.184;2023-09-30T03:36:08;7.45;;;4.38;;
16440;SDS011;8330;-33.858;151.184;2023-09-30T03:38:41;6.60;;;4.20;;
16440;SDS011;8330;-33.858;151.184;2023-09-30T03:41:11;7.93;;;4.03;;
16440;SDS011;8330;-33.858;151.184;2023-09-30T03:43:42;5.57;;;4.10;;
16440;SDS011;8330;-33.858;151.184;2023-09-30T03:46:15;7.85;;;3.97;;
16440;SDS011;8330;-33.858;151.184;2023-09-30T03:48:46;7.55;;;4.00;;
16440;SDS011;8330;-33.858;151.184;2023-09-30T03:51:17;8.05;;;4.40;;
16440;SDS011;8330;-33.858;151.184;2023-09-30T03:53:53;7.65;;;4.00;;
16440;SDS011;8330;-33.858;151.184;2023-09-30T03:56:23;9.57;;;4.38;;
16440;SDS011;8330;-33.858;151.184;2023-09-30T03:58:54;8.80;;;4.47;;
16440;SDS011;8330;-33.858;151.184;2023-09-30T04:01:25;7.47;;;3.90;;
16440;SDS011;8330;-33.858;151.184;2023-09-30T04:03:55;9.63;;;4.70;;
16440;SDS011;8330;-33.858;151.184;2023-09-30T04:06:26;5.22;;;3.65;;
16440;SDS011;8330;-33.858;151.184;2023-09-30T04:08:59;10.23;;;3.97;;
16440;SDS011;8330;-33.858;151.184;2023-09-30T04:11:36;6.18;;;3.50;;
16440;SDS011;8330;-33.858;151.184;2023-09-30T04:14:08;8.27;;;3.85;;
16440;SDS011;8330;-33.858;151.184;2023-09-30T04:16:39;10.32;;;3.80;;
16440;SDS011;8330;-33.858;151.184;2023-09-30T04:19:10;7.25;;;3.70;;
16440;SDS011;8330;-33.858;151.184;2023-09-30T04:21:42;8.90;;;3.80;;
16440;SDS011;8330;-33.858;151.184;2023-09-30T04:24:14;8.18;;;3.47;;
16440;SDS011;8330;-33.858;151.184;2023-09-30T04:26:46;9.85;;;3.72;;
16440;SDS011;8330;-33.858;151.184;2023-09-30T04:29:20;10.23;;;3.65;;
16440;SDS011;8330;-33.858;151.184;2023-09-30T04:31:51;11.27;;;3.75;;
16440;SDS011;8330;-33.858;151.184;2023-09-30T04:34:21;9.20;;;3.42;;
16440;SDS011;8330;-33.858;151.184;2023-09-30T04:36:53;6.80;;;3.47;;
16440;SDS011;8330;-33.858;151.184;2023-09-30T04:39:28;7.95;;;3.20;;
16440;SDS011;8330;-33.858;151.184;2023-09-30T04:42:01;11.45;;;3.63;;
16440;SDS011;8330;-33.858;151.184;2023-09-30T04:44:34;9.48;;;3.92;;
16440;SDS011;8330;-33.858;151.184;2023-09-30T04:47:07;7.88;;;3.30;;
16440;SDS011;8330;-33.858;151.184;2023-09-30T04:49:40;8.27;;;3.60;;
16440;SDS011;8330;-33.858;151.184;2023-09-30T04:52:10;10.98;;;4.05;;
16440;SDS011;8330;-33.858;151.184;2023-09-30T04:54:46;9.13;;;3.95;;
16440;SDS011;8330;-33.858;151.184;2023-09-30T04:57:17;11.38;;;3.83;;
16440;SDS011;8330;-33.858;151.184;2023-09-30T04:59:48;8.10;;;3.47;;
16440;SDS011;8330;-33.858;151.184;2023-09-30T05:02:19;12.18;;;4.20;;
16440;SDS011;8330;-33.858;151.184;2023-09-30T05:04:49;8.02;;;3.50;;
16440;SDS011;8330;-33.858;151.184;2023-09-30T05:07:20;11.43;;;3.65;;
16440;SDS011;8330;-33.858;151.184;2023-09-30T05:09:56;8.63;;;3.63;;
16440;SDS011;8330;-33.858;151.184;2023-09-30T05:12:31;9.55;;;3.67;;
16440;SDS011;8330;-33.858;151.184;2023-09-30T05:15:02;7.72;;;3.40;;
16440;SDS011;8330;-33.858;151.184;2023-09-30T05:17:33;9.82;;;3.88;;
16440;SDS011;8330;-33.858;151.184;2023-09-30T05:20:04;10.38;;;3.55;;
16440;SDS011;8330;-33.858;151.184;2023-09-30T05:22:41;8.57;;;3.70;;
16440;SDS011;8330;-33.858;151.184;2023-09-30T05:25:15;11.00;;;3.65;;
16440;SDS011;8330;-33.858;151.184;2023-09-30T05:27:46;7.68;;;3.67;;
16440;SDS011;8330;-33.858;151.184;2023-09-30T05:30:17;10.25;;;3.58;;
16440;SDS011;8330;-33.858;151.184;2023-09-30T05:32:48;9.57;;;3.58;;
16440;SDS011;8330;-33.858;151.184;2023-09-30T05:35:19;7.93;;;3.38;;
16440;SDS011;8330;-33.858;151.184;2023-09-30T05:37:50;10.18;;;3.47;;
16440;SDS011;8330;-33.858;151.184;2023-09-30T05:40:23;7.50;;;3.70;;
16440;SDS011;8330;-33.858;151.184;2023-09-30T05:42:56;11.57;;;3.50;;
16440;SDS011;8330;-33.858;151.184;2023-09-30T05:45:27;6.28;;;3.20;;
16440;SDS011;8330;-33.858;151.184;2023-09-30T05:48:01;9.68;;;3.67;;
16440;SDS011;8330;-33.858;151.184;2023-09-30T05:50:33;7.25;;;3.45;;
16440;SDS011;8330;-33.858;151.184;2023-09-30T05:53:04;12.07;;;3.35;;
16440;SDS011;8330;-33.858;151.184;2023-09-30T05:55:38;6.93;;;3.45;;
16440;SDS011;8330;-33.858;151.184;2023-09-30T05:58:13;9.05;;;3.55;;
16440;SDS011;8330;-33.858;151.184;2023-09-30T06:00:44;9.57;;;3.63;;
16440;SDS011;8330;-33.858;151.184;2023-09-30T06:03:17;6.20;;;2.92;;
16440;SDS011;8330;-33.858;151.184;2023-09-30T06:05:48;9.05;;;3.72;;
16440;SDS011;8330;-33.858;151.184;2023-09-30T06:08:19;10.65;;;3.60;;
16440;SDS011;8330;-33.858;151.184;2023-09-30T06:10:52;10.05;;;3.60;;
16440;SDS011;8330;-33.858;151.184;2023-09-30T06:13:25;10.13;;;3.33;;
16440;SDS011;8330;-33.858;151.184;2023-09-30T06:15:57;10.95;;;3.72;;
16440;SDS011;8330;-33.858;151.184;2023-09-30T06:18:28;8.90;;;3.60;;
16440;SDS011;8330;-33.858;151.184;2023-09-30T06:20:59;10.88;;;3.40;;
16440;SDS011;8330;-33.858;151.184;2023-09-30T06:23:30;9.50;;;3.65;;
16440;SDS011;8330;-33.858;151.184;2023-09-30T06:26:03;9.30;;;3.50;;
16440;SDS011;8330;-33.858;151.184;2023-09-30T06:28:33;6.57;;;3.10;;
16440;SDS011;8330;-33.858;151.184;2023-09-30T06:31:07;7.55;;;2.85;;
16440;SDS011;8330;-33.858;151.184;2023-09-30T06:33:39;4.25;;;2.78;;
16440;SDS011;8330;-33.858;151.184;2023-09-30T06:36:09;8.20;;;3.20;;
16440;SDS011;8330;-33.858;151.184;2023-09-30T06:38:41;10.60;;;3.20;;
16440;SDS011;8330;-33.858;151.184;2023-09-30T06:41:19;7.80;;;3.17;;
16440;SDS011;8330;-33.858;151.184;2023-09-30T06:43:50;9.45;;;3.13;;
16440;SDS011;8330;-33.858;151.184;2023-09-30T06:46:20;7.20;;;3.10;;
16440;SDS011;8330;-33.858;151.184;2023-09-30T06:48:53;8.25;;;2.85;;
16440;SDS011;8330;-33.858;151.184;2023-09-30T06:51:27;8.88;;;3.05;;
16440;SDS011;8330;-33.858;151.184;2023-09-30T06:53:57;7.53;;;3.00;;
16440;SDS011;8330;-33.858;151.184;2023-09-30T06:56:31;7.05;;;2.97;;
16440;SDS011;8330;-33.858;151.184;2023-09-30T06:59:03;8.38;;;2.88;;
16440;SDS011;8330;-33.858;151.184;2023-09-30T07:01:35;7.55;;;2.70;;
16440;SDS011;8330;-33.858;151.184;2023-09-30T07:04:05;5.55;;;3.05;;
16440;SDS011;8330;-33.858;151.184;2023-09-30T07:06:37;7.72;;;2.90;;
16440;SDS011;8330;-33.858;151.184;2023-09-30T07:09:08;8.23;;;3.17;;
16440;SDS011;8330;-33.858;151.184;2023-09-30T07:11:41;6.70;;;2.90;;
16440;SDS011;8330;-33.858;151.184;2023-09-30T07:14:12;8.30;;;2.83;;
16440;SDS011;8330;-33.858;151.184;2023-09-30T07:16:43;8.45;;;2.78;;
16440;SDS011;8330;-33.858;151.184;2023-09-30T07:19:13;8.23;;;2.80;;
16440;SDS011;8330;-33.858;151.184;2023-09-30T07:21:44;7.55;;;2.67;;
16440;SDS011;8330;-33.858;151.184;2023-09-30T07:24:15;6.18;;;2.67;;
16440;SDS011;8330;-33.858;151.184;2023-09-30T07:26:47;9.07;;;3.17;;
16440;SDS011;8330;-33.858;151.184;2023-09-30T07:29:19;6.13;;;2.67;;
16440;SDS011;8330;-33.858;151.184;2023-09-30T07:31:50;5.65;;;2.65;;
16440;SDS011;8330;-33.858;151.184;2023-09-30T07:34:25;6.90;;;2.80;;
16440;SDS011;8330;-33.858;151.184;2023-09-30T07:36:56;5.78;;;2.67;;
16440;SDS011;8330;-33.858;151.184;2023-09-30T07:39:27;5.68;;;2.75;;
16440;SDS011;8330;-33.858;151.184;2023-09-30T07:42:00;9.02;;;2.90;;
16440;SDS011;8330;-33.858;151.184;2023-09-30T07:44:31;7.07;;;2.78;;
16440;SDS011;8330;-33.858;151.184;2023-09-30T07:47:03;9.60;;;3.00;;
16440;SDS011;8330;-33.858;151.184;2023-09-30T07:49:34;6.93;;;3.00;;
16440;SDS011;8330;-33.858;151.184;2023-09-30T07:52:06;6.43;;;2.70;;
16440;SDS011;8330;-33.858;151.184;2023-09-30T07:54:37;6.72;;;3.10;;
16440;SDS011;8330;-33.858;151.184;2023-09-30T07:57:10;6.30;;;2.78;;
16440;SDS011;8330;-33.858;151.184;2023-09-30T07:59:41;8.77;;;3.03;;
16440;SDS011;8330;-33.858;151.184;2023-09-30T08:02:12;5.93;;;2.50;;
16440;SDS011;8330;-33.858;151.184;2023-09-30T08:04:43;5.20;;;2.65;;
16440;SDS011;8330;-33.858;151.184;2023-09-30T08:07:14;6.70;;;2.72;;
16440;SDS011;8330;-33.858;151.184;2023-09-30T08:09:45;9.10;;;3.05;;
16440;SDS011;8330;-33.858;151.184;2023-09-30T08:12:21;7.50;;;2.72;;
16440;SDS011;8330;-33.858;151.184;2023-09-30T08:14:52;6.53;;;2.95;;
16440;SDS011;8330;-33.858;151.184;2023-09-30T08:17:23;6.60;;;2.63;;
16440;SDS011;8330;-33.858;151.184;2023-09-30T08:19:54;7.03;;;3.03;;
16440;SDS011;8330;-33.858;151.184;2023-09-30T08:22:25;7.30;;;3.08;;
16440;SDS011;8330;-33.858;151.184;2023-09-30T08:24:56;7.57;;;3.20;;
16440;SDS011;8330;-33.858;151.184;2023-09-30T08:27:29;8.85;;;3.00;;
16440;SDS011;8330;-33.858;151.184;2023-09-30T08:30:02;8.63;;;2.83;;
16440;SDS011;8330;-33.858;151.184;2023-09-30T08:32:34;7.35;;;2.75;;
16440;SDS011;8330;-33.858;151.184;2023-09-30T08:35:06;7.68;;;3.20;;
16440;SDS011;8330;-33.858;151.184;2023-09-30T08:37:40;8.40;;;2.80;;
16440;SDS011;8330;-33.858;151.184;2023-09-30T08:40:11;8.20;;;2.72;;
16440;SDS011;8330;-33.858;151.184;2023-09-30T08:42:44;5.45;;;3.00;;
16440;SDS011;8330;-33.858;151.184;2023-09-30T08:45:18;7.15;;;2.90;;
16440;SDS011;8330;-33.858;151.184;2023-09-30T08:47:49;8.10;;;2.78;;
16440;SDS011;8330;-33.858;151.184;2023-09-30T08:50:20;8.93;;;3.13;;
16440;SDS011;8330;-33.858;151.184;2023-09-30T08:52:52;10.40;;;3.70;;
16440;SDS011;8330;-33.858;151.184;2023-09-30T08:55:24;6.47;;;2.80;;
16440;SDS011;8330;-33.858;151.184;2023-09-30T08:57:57;10.35;;;2.97;;
16440;SDS011;8330;-33.858;151.184;2023-09-30T09:00:29;7.30;;;2.72;;
16440;SDS011;8330;-33.858;151.184;2023-09-30T09:03:02;6.05;;;2.80;;
16440;SDS011;8330;-33.858;151.184;2023-09-30T09:05:33;7.30;;;2.90;;
16440;SDS011;8330;-33.858;151.184;2023-09-30T09:08:04;5.43;;;2.80;;
16440;SDS011;8330;-33.858;151.184;2023-09-30T09:10:44;7.65;;;2.80;;
16440;SDS011;8330;-33.858;151.184;2023-09-30T09:13:26;7.63;;;2.50;;
16440;SDS011;8330;-33.858;151.184;2023-09-30T09:16:06;6.35;;;2.60;;
16440;SDS011;8330;-33.858;151.184;2023-09-30T09:18:37;6.45;;;2.78;;
16440;SDS011;8330;-33.858;151.184;2023-09-30T09:21:09;6.40;;;2.60;;
16440;SDS011;8330;-33.858;151.184;2023-09-30T09:23:41;6.15;;;2.80;;
16440;SDS011;8330;-33.858;151.184;2023-09-30T09:26:12;7.95;;;2.65;;
16440;SDS011;8330;-33.858;151.184;2023-09-30T09:28:58;7.32;;;2.90;;
16440;SDS011;8330;-33.858;151.184;2023-09-30T09:31:32;6.85;;;2.60;;
16440;SDS011;8330;-33.858;151.184;2023-09-30T09:34:03;8.43;;;2.90;;
16440;SDS011;8330;-33.858;151.184;2023-09-30T09:36:42;8.82;;;2.97;;
16440;SDS011;8330;-33.858;151.184;2023-09-30T09:39:13;9.95;;;3.17;;
16440;SDS011;8330;-33.858;151.184;2023-09-30T09:41:50;10.13;;;3.38;;
16440;SDS011;8330;-33.858;151.184;2023-09-30T09:44:25;11.25;;;3.40;;
16440;SDS011;8330;-33.858;151.184;2023-09-30T09:46:57;8.88;;;3.65;;
16440;SDS011;8330;-33.858;151.184;2023-09-30T09:49:31;8.10;;;3.40;;
16440;SDS011;8330;-33.858;151.184;2023-09-30T09:52:02;12.27;;;3.97;;
16440;SDS011;8330;-33.858;151.184;2023-09-30T09:54:33;11.73;;;3.83;;
16440;SDS011;8330;-33.858;151.184;2023-09-30T09:57:05;6.18;;;3.15;;
16440;SDS011;8330;-33.858;151.184;2023-09-30T09:59:42;8.60;;;3.20;;
16440;SDS011;8330;-33.858;151.184;2023-09-30T10:02:14;10.40;;;3.30;;
16440;SDS011;8330;-33.858;151.184;2023-09-30T10:04:45;12.65;;;3.80;;
16440;SDS011;8330;-33.858;151.184;2023-09-30T10:07:18;7.93;;;3.05;;
16440;SDS011;8330;-33.858;151.184;2023-09-30T10:09:51;12.77;;;3.38;;
16440;SDS011;8330;-33.858;151.184;2023-09-30T10:12:25;10.18;;;3.42;;
16440;SDS011;8330;-33.858;151.184;2023-09-30T10:14:58;10.98;;;3.50;;
16440;SDS011;8330;-33.858;151.184;2023-09-30T10:20:29;8.13;;;3.47;;
16440;SDS011;8330;-33.858;151.184;2023-09-30T10:26:13;10.95;;;3.90;;
16440;SDS011;8330;-33.858;151.184;2023-09-30T10:28:46;9.48;;;3.63;;
16440;SDS011;8330;-33.858;151.184;2023-09-30T10:31:19;9.95;;;3.67;;
16440;SDS011;8330;-33.858;151.184;2023-09-30T10:36:49;10.07;;;3.10;;
16440;SDS011;8330;-33.858;151.184;2023-09-30T10:42:47;11.07;;;3.67;;
16440;SDS011;8330;-33.858;151.184;2023-09-30T10:51:13;8.55;;;3.47;;
16440;SDS011;8330;-33.858;151.184;2023-09-30T10:53:47;9.93;;;3.55;;
16440;SDS011;8330;-33.858;151.184;2023-09-30T10:56:22;8.48;;;3.60;;
16440;SDS011;8330;-33.858;151.184;2023-09-30T10:59:01;9.63;;;3.55;;
16440;SDS011;8330;-33.858;151.184;2023-09-30T11:01:32;6.55;;;3.30;;
16440;SDS011;8330;-33.858;151.184;2023-09-30T11:04:06;9.88;;;3.53;;
16440;SDS011;8330;-33.858;151.184;2023-09-30T11:06:39;8.43;;;3.13;;
16440;SDS011;8330;-33.858;151.184;2023-09-30T11:09:14;9.73;;;3.80;;
16440;SDS011;8330;-33.858;151.184;2023-09-30T11:11:46;7.38;;;3.47;;
16440;SDS011;8330;-33.858;151.184;2023-09-30T11:14:18;10.00;;;3.38;;
16440;SDS011;8330;-33.858;151.184;2023-09-30T11:16:49;10.30;;;3.85;;
16440;SDS011;8330;-33.858;151.184;2023-09-30T11:19:23;9.73;;;3.50;;
16440;SDS011;8330;-33.858;151.184;2023-09-30T11:21:54;9.32;;;3.42;;
16440;SDS011;8330;-33.858;151.184;2023-09-30T11:24:25;9.98;;;3.70;;
16440;SDS011;8330;-33.858;151.184;2023-09-30T11:26:56;8.95;;;3.42;;
16440;SDS011;8330;-33.858;151.184;2023-09-30T11:29:27;8.50;;;3.45;;
16440;SDS011;8330;-33.858;151.184;2023-09-30T11:31:58;11.15;;;3.30;;
16440;SDS011;8330;-33.858;151.184;2023-09-30T11:34:35;11.00;;;3.45;;
16440;SDS011;8330;-33.858;151.184;2023-09-30T11:37:08;6.85;;;3.00;;
16440;SDS011;8330;-33.858;151.184;2023-09-30T11:39:39;9.77;;;3.53;;
16440;SDS011;8330;-33.858;151.184;2023-09-30T11:42:14;8.13;;;3.58;;
16440;SDS011;8330;-33.858;151.184;2023-09-30T11:44:46;12.55;;;3.60;;
16440;SDS011;8330;-33.858;151.184;2023-09-30T11:47:23;8.77;;;3.58;;
16440;SDS011;8330;-33.858;151.184;2023-09-30T11:50:02;12.18;;;3.58;;
16440;SDS011;8330;-33.858;151.184;2023-09-30T11:52:33;10.38;;;3.10;;
16440;SDS011;8330;-33.858;151.184;2023-09-30T11:55:06;13.68;;;3.83;;
16440;SDS011;8330;-33.858;151.184;2023-09-30T11:57:42;13.73;;;3.63;;
16440;SDS011;8330;-33.858;151.184;2023-09-30T12:00:13;9.85;;;3.47;;
16440;SDS011;8330;-33.858;151.184;2023-09-30T12:02:44;12.68;;;3.90;;
16440;SDS011;8330;-33.858;151.184;2023-09-30T12:05:17;12.68;;;3.67;;
16440;SDS011;8330;-33.858;151.184;2023-09-30T12:07:48;11.98;;;3.75;;
16440;SDS011;8330;-33.858;151.184;2023-09-30T12:10:19;13.43;;;3.55;;
16440;SDS011;8330;-33.858;151.184;2023-09-30T12:12:52;15.82;;;4.30;;
16440;SDS011;8330;-33.858;151.184;2023-09-30T12:15:25;9.48;;;3.53;;
16440;SDS011;8330;-33.858;151.184;2023-09-30T12:17:56;10.27;;;4.00;;
16440;SDS011;8330;-33.858;151.184;2023-09-30T12:20:29;12.05;;;3.88;;
16440;SDS011;8330;-33.858;151.184;2023-09-30T12:23:00;10.13;;;3.97;;
16440;SDS011;8330;-33.858;151.184;2023-09-30T12:25:32;13.65;;;3.95;;
16440;SDS011;8330;-33.858;151.184;2023-09-30T12:28:03;11.00;;;3.67;;
16440;SDS011;8330;-33.858;151.184;2023-09-30T12:30:34;14.63;;;3.67;;
16440;SDS011;8330;-33.858;151.184;2023-09-30T12:33:06;11.98;;;3.83;;
16440;SDS011;8330;-33.858;151.184;2023-09-30T12:35:47;16.33;;;3.90;;
16440;SDS011;8330;-33.858;151.184;2023-09-30T12:38:19;12.48;;;4.05;;
16440;SDS011;8330;-33.858;151.184;2023-09-30T12:40:50;12.57;;;3.72;;
16440;SDS011;8330;-33.858;151.184;2023-09-30T12:43:23;9.88;;;3.67;;
16440;SDS011;8330;-33.858;151.184;2023-09-30T12:45:53;11.27;;;3.60;;
16440;SDS011;8330;-33.858;151.184;2023-09-30T12:48:25;10.88;;;3.85;;
16440;SDS011;8330;-33.858;151.184;2023-09-30T12:50:59;13.60;;;3.90;;
16440;SDS011;8330;-33.858;151.184;2023-09-30T12:53:32;14.80;;;3.85;;
16440;SDS011;8330;-33.858;151.184;2023-09-30T12:56:03;11.35;;;3.70;;
16440;SDS011;8330;-33.858;151.184;2023-09-30T12:58:34;12.25;;;4.28;;
16440;SDS011;8330;-33.858;151.184;2023-09-30T13:01:04;12.38;;;3.97;;
16440;SDS011;8330;-33.858;151.184;2023-09-30T13:03:36;14.38;;;4.32;;
16440;SDS011;8330;-33.858;151.184;2023-09-30T13:06:10;14.75;;;3.97;;
16440;SDS011;8330;-33.858;151.184;2023-09-30T13:08:41;12.40;;;3.97;;
16440;SDS011;8330;-33.858;151.184;2023-09-30T13:11:13;13.43;;;3.80;;
16440;SDS011;8330;-33.858;151.184;2023-09-30T13:13:44;14.30;;;3.95;;
16440;SDS011;8330;-33.858;151.184;2023-09-30T13:16:14;15.60;;;4.63;;
16440;SDS011;8330;-33.858;151.184;2023-09-30T13:18:45;13.68;;;3.90;;
16440;SDS011;8330;-33.858;151.184;2023-09-30T13:21:20;14.20;;;4.00;;
16440;SDS011;8330;-33.858;151.184;2023-09-30T13:23:51;14.05;;;4.63;;
16440;SDS011;8330;-33.858;151.184;2023-09-30T13:26:25;11.63;;;3.90;;
16440;SDS011;8330;-33.858;151.184;2023-09-30T13:28:57;13.75;;;4.22;;
16440;SDS011;8330;-33.858;151.184;2023-09-30T13:31:28;13.25;;;3.97;;
16440;SDS011;8330;-33.858;151.184;2023-09-30T13:34:04;14.90;;;3.90;;
16440;SDS011;8330;-33.858;151.184;2023-09-30T13:36:37;14.70;;;4.28;;
16440;SDS011;8330;-33.858;151.184;2023-09-30T13:39:08;13.63;;;3.67;;
16440;SDS011;8330;-33.858;151.184;2023-09-30T13:41:43;14.73;;;3.97;;
16440;SDS011;8330;-33.858;151.184;2023-09-30T13:44:14;15.80;;;4.38;;
16440;SDS011;8330;-33.858;151.184;2023-09-30T13:46:45;19.23;;;4.47;;
16440;SDS011;8330;-33.858;151.184;2023-09-30T13:49:16;14.93;;;4.05;;
16440;SDS011;8330;-33.858;151.184;2023-09-30T13:51:49;15.32;;;4.28;;
16440;SDS011;8330;-33.858;151.184;2023-09-30T13:54:20;13.73;;;4.10;;
16440;SDS011;8330;-33.858;151.184;2023-09-30T13:56:51;16.52;;;4.90;;
16440;SDS011;8330;-33.858;151.184;2023-09-30T13:59:22;14.27;;;4.20;;
16440;SDS011;8330;-33.858;151.184;2023-09-30T14:01:54;13.25;;;4.15;;
16440;SDS011;8330;-33.858;151.184;2023-09-30T14:04:24;19.88;;;4.43;;
16440;SDS011;8330;-33.858;151.184;2023-09-30T14:06:57;13.40;;;4.05;;
16440;SDS011;8330;-33.858;151.184;2023-09-30T14:09:28;9.65;;;3.75;;
16440;SDS011;8330;-33.858;151.184;2023-09-30T14:12:00;15.77;;;4.13;;
16440;SDS011;8330;-33.858;151.184;2023-09-30T14:14:31;14.60;;;4.72;;
16440;SDS011;8330;-33.858;151.184;2023-09-30T14:17:02;15.13;;;4.63;;
16440;SDS011;8330;-33.858;151.184;2023-09-30T14:19:36;13.93;;;4.55;;
16440;SDS011;8330;-33.858;151.184;2023-09-30T14:22:09;12.00;;;4.28;;
16440;SDS011;8330;-33.858;151.184;2023-09-30T14:24:40;17.17;;;3.88;;
16440;SDS011;8330;-33.858;151.184;2023-09-30T14:27:11;15.30;;;4.18;;
16440;SDS011;8330;-33.858;151.184;2023-09-30T14:29:42;10.65;;;4.10;;
16440;SDS011;8330;-33.858;151.184;2023-09-30T14:32:14;12.98;;;4.20;;
16440;SDS011;8330;-33.858;151.184;2023-09-30T14:34:44;17.15;;;4.95;;
16440;SDS011;8330;-33.858;151.184;2023-09-30T14:37:17;13.20;;;4.65;;
16440;SDS011;8330;-33.858;151.184;2023-09-30T14:39:48;13.77;;;4.57;;
16440;SDS011;8330;-33.858;151.184;2023-09-30T14:42:18;12.88;;;3.92;;
16440;SDS011;8330;-33.858;151.184;2023-09-30T14:44:49;14.68;;;4.38;;
16440;SDS011;8330;-33.858;151.184;2023-09-30T14:47:20;13.77;;;4.25;;
16440;SDS011;8330;-33.858;151.184;2023-09-30T14:49:53;14.32;;;4.25;;
16440;SDS011;8330;-33.858;151.184;2023-09-30T14:52:29;15.73;;;4.30;;
16440;SDS011;8330;-33.858;151.184;2023-09-30T14:55:00;16.23;;;4.47;;
16440;SDS011;8330;-33.858;151.184;2023-09-30T14:57:31;13.05;;;3.97;;
16440;SDS011;8330;-33.858;151.184;2023-09-30T15:00:02;14.35;;;4.00;;
16440;SDS011;8330;-33.858;151.184;2023-09-30T15:02:33;11.60;;;3.80;;